createdAt,value
2023-03-17T00:01:51.181Z,50.40
2023-03-17T00:04:24.316Z,50.30
2023-03-17T00:06:51.734Z,50.40
2023-03-17T00:09:20.417Z,49.90
2023-03-17T00:11:47.790Z,50.30
2023-03-17T00:14:14.730Z,50.40
2023-03-17T00:16:43.627Z,50.30
2023-03-17T00:19:19.946Z,50.40
2023-03-17T00:21:46.952Z,50.40
2023-03-17T00:24:15.225Z,50.40
2023-03-17T00:26:43.192Z,50.30
2023-03-17T00:29:10.015Z,50.40
2023-03-17T00:31:38.002Z,50.40
2023-03-17T00:34:05.609Z,50.40
2023-03-17T00:36:34.095Z,50.30
2023-03-17T00:39:00.976Z,50.40
2023-03-17T00:41:27.673Z,50.30
2023-03-17T00:43:54.413Z,50.90
2023-03-17T00:46:28.336Z,50.20
2023-03-17T00:48:55.240Z,50.30
2023-03-17T00:51:22.201Z,50.20
2023-03-17T00:53:49.027Z,50.30
2023-03-17T00:56:20.842Z,50.30
2023-03-17T00:58:49.037Z,50.30
2023-03-17T01:01:16.135Z,50.30
2023-03-17T01:03:42.933Z,50.30
2023-03-17T01:06:12.520Z,50.20
2023-03-17T01:08:40.713Z,50.30
2023-03-17T01:11:14.595Z,50.20
2023-03-17T01:13:41.554Z,50.20
2023-03-17T01:16:12.248Z,50.20
2023-03-17T01:18:39.812Z,50.20
2023-03-17T01:21:07.803Z,50.20
2023-03-17T01:23:34.468Z,50.20
2023-03-17T01:26:01.563Z,50.20
2023-03-17T01:28:28.201Z,50.20
2023-03-17T01:30:55.391Z,50.20
2023-03-17T01:33:22.191Z,50.20
2023-03-17T01:35:50.856Z,50.20
2023-03-17T01:38:17.630Z,50.10
2023-03-17T01:40:50.388Z,49.60
2023-03-17T01:43:21.407Z,50.10
2023-03-17T01:46:07.225Z,50.10
2023-03-17T01:48:38.604Z,50.10
2023-03-17T01:51:06.988Z,50.10
2023-03-17T01:53:35.767Z,50.00
2023-03-17T01:56:03.798Z,50.00
2023-03-17T01:58:31.525Z,50.10
2023-03-17T02:00:58.189Z,50.00
2023-03-17T02:03:26.004Z,50.10
2023-03-17T02:05:54.230Z,50.00
2023-03-17T02:08:21.024Z,50.00
2023-03-17T02:10:49.513Z,50.00
2023-03-17T02:13:16.700Z,50.00
2023-03-17T02:15:46.903Z,50.00
2023-03-17T02:18:14.387Z,50.10
2023-03-17T02:20:40.941Z,49.50
2023-03-17T02:23:07.838Z,50.00
2023-03-17T02:25:36.586Z,50.00
2023-03-17T02:28:25.880Z,50.00
2023-03-17T02:30:52.706Z,50.00
2023-03-17T02:33:19.458Z,49.90
2023-03-17T02:35:46.768Z,50.00
2023-03-17T02:38:13.418Z,50.00
2023-03-17T02:40:40.533Z,49.40
2023-03-17T02:43:07.149Z,50.00
2023-03-17T02:45:33.730Z,49.90
2023-03-17T02:48:01.105Z,50.60
2023-03-17T02:50:29.505Z,49.90
2023-03-17T02:52:56.942Z,50.00
2023-03-17T02:55:23.622Z,50.00
2023-03-17T02:57:50.233Z,49.90
2023-03-17T03:00:17.240Z,49.40
2023-03-17T03:02:43.923Z,50.00
2023-03-17T03:05:10.725Z,49.90
2023-03-17T03:07:37.452Z,50.00
2023-03-17T03:10:05.393Z,49.90
2023-03-17T03:12:32.572Z,49.90
2023-03-17T03:14:59.412Z,49.90
2023-03-17T03:17:26.234Z,49.90
2023-03-17T03:19:52.821Z,49.90
2023-03-17T03:22:19.445Z,49.90
2023-03-17T03:24:46.064Z,49.90
2023-03-17T03:27:12.669Z,49.90
2023-03-17T03:29:39.370Z,49.80
2023-03-17T03:32:06.504Z,49.80
2023-03-17T03:34:33.146Z,49.80
2023-03-17T03:36:59.949Z,49.90
2023-03-17T03:39:26.572Z,49.90
2023-03-17T03:41:57.193Z,49.80
2023-03-17T03:44:24.730Z,49.90
2023-03-17T03:46:51.759Z,49.90
2023-03-17T03:49:18.544Z,49.80
2023-03-17T03:51:45.153Z,49.80
2023-03-17T03:54:11.841Z,49.90
2023-03-17T03:56:38.462Z,49.90
2023-03-17T03:59:05.151Z,49.90
2023-03-17T04:01:31.805Z,49.90
2023-03-17T04:03:58.454Z,49.90
2023-03-17T04:06:25.076Z,49.70
2023-03-17T04:08:51.690Z,49.80
2023-03-17T04:11:18.359Z,49.80
2023-03-17T04:13:45.008Z,49.80
2023-03-17T04:16:12.122Z,49.80
2023-03-17T04:18:38.845Z,49.80
2023-03-17T04:21:06.066Z,49.70
2023-03-17T04:23:32.689Z,49.70
2023-03-17T04:25:59.409Z,49.70
2023-03-17T04:28:26.055Z,49.80
2023-03-17T04:30:52.657Z,49.80
2023-03-17T04:33:20.206Z,49.80
2023-03-17T04:35:46.893Z,49.80
2023-03-17T04:38:13.650Z,49.70
2023-03-17T04:40:40.644Z,49.80
2023-03-17T04:43:07.399Z,49.60
2023-03-17T04:45:34.055Z,49.80
2023-03-17T04:48:00.793Z,49.70
2023-03-17T04:50:27.493Z,49.70
2023-03-17T04:52:54.110Z,49.60
2023-03-17T04:55:21.063Z,49.60
2023-03-17T04:57:48.135Z,49.60
2023-03-17T05:00:15.470Z,49.70
2023-03-17T05:02:42.298Z,49.70
2023-03-17T05:05:09.841Z,49.70
2023-03-17T05:07:36.441Z,49.70
2023-03-17T05:10:03.213Z,49.60
2023-03-17T05:12:29.947Z,49.60
2023-03-17T05:14:56.626Z,49.60
2023-03-17T05:17:23.276Z,49.70
2023-03-17T05:19:49.884Z,49.70
2023-03-17T05:22:16.848Z,49.60
2023-03-17T05:24:43.641Z,49.70
2023-03-17T05:27:10.392Z,49.60
2023-03-17T05:29:37.044Z,49.60
2023-03-17T05:32:04.154Z,49.70
2023-03-17T05:34:31.090Z,49.60
2023-03-17T05:36:57.683Z,49.60
2023-03-17T05:39:24.295Z,49.60
2023-03-17T05:41:51.434Z,49.60
2023-03-17T05:44:18.089Z,49.60
2023-03-17T05:46:44.732Z,49.60
2023-03-17T05:49:11.350Z,49.60
2023-03-17T05:51:37.964Z,49.70
2023-03-17T05:54:04.708Z,49.60
2023-03-17T05:56:33.463Z,49.60
2023-03-17T05:59:01.576Z,49.60
2023-03-17T06:01:29.379Z,49.10
2023-03-17T06:03:56.089Z,49.60
2023-03-17T06:06:24.470Z,49.60
2023-03-17T06:08:51.546Z,49.80
2023-03-17T06:11:20.490Z,49.60
2023-03-17T06:13:47.523Z,50.20
2023-03-17T06:16:14.382Z,50.10
2023-03-17T06:18:41.013Z,50.10
2023-03-17T06:21:07.968Z,50.40
2023-03-17T06:23:34.589Z,50.40
2023-03-17T06:26:01.470Z,50.40
2023-03-17T06:28:28.163Z,50.20
2023-03-17T06:30:54.848Z,50.10
2023-03-17T06:33:21.834Z,50.10
2023-03-17T06:35:48.556Z,50.20
2023-03-17T06:38:15.199Z,50.10
2023-03-17T06:40:41.840Z,49.90
2023-03-17T06:43:08.588Z,50.50
2023-03-17T06:45:35.555Z,50.40
2023-03-17T06:48:02.222Z,49.90
2023-03-17T06:50:28.990Z,50.10
2023-03-17T06:52:55.901Z,50.10
2023-03-17T06:55:22.548Z,49.90
2023-03-17T06:57:51.064Z,49.90
2023-03-17T07:00:18.990Z,49.40
2023-03-17T07:02:46.067Z,49.40
2023-03-17T07:05:13.850Z,49.60
2023-03-17T07:07:41.061Z,49.70
2023-03-17T07:10:10.243Z,50.00
2023-03-17T07:12:37.474Z,49.90
2023-03-17T07:15:04.431Z,50.00
2023-03-17T07:17:31.054Z,49.60
2023-03-17T07:19:57.673Z,49.80
2023-03-17T07:22:24.345Z,49.90
2023-03-17T07:24:51.813Z,50.10
2023-03-17T07:27:20.786Z,50.20
2023-03-17T07:29:49.002Z,50.10
2023-03-17T07:32:15.608Z,50.10
2023-03-17T07:34:42.383Z,49.80
2023-03-17T07:37:10.150Z,49.80
2023-03-17T07:39:36.779Z,49.30
2023-03-17T07:42:03.566Z,49.40
2023-03-17T07:44:31.137Z,49.60
2023-03-17T07:46:57.913Z,49.60
2023-03-17T07:49:39.900Z,49.20
2023-03-17T07:52:08.648Z,49.60
2023-03-17T07:54:37.535Z,49.60
2023-03-17T07:57:05.408Z,49.50
2023-03-17T07:59:32.889Z,49.60
2023-03-17T08:02:01.184Z,49.00
2023-03-17T08:04:27.952Z,49.60
2023-03-17T08:06:54.724Z,49.60
2023-03-17T08:09:22.220Z,49.60
2023-03-17T08:11:49.469Z,49.60
2023-03-17T08:14:16.163Z,49.60
2023-03-17T08:16:42.907Z,49.60
2023-03-17T08:19:10.927Z,49.10
2023-03-17T08:21:37.622Z,49.60
2023-03-17T08:24:05.102Z,49.60
2023-03-17T08:26:32.230Z,49.50
2023-03-17T08:28:59.045Z,49.60
2023-03-17T08:31:25.797Z,49.00
2023-03-17T08:33:54.118Z,49.60
2023-03-17T08:36:21.289Z,49.60
2023-03-17T08:38:48.729Z,49.50
2023-03-17T08:41:18.654Z,49.50
2023-03-17T08:43:46.574Z,49.50
2023-03-17T08:46:17.768Z,49.60
2023-03-17T08:48:46.752Z,49.00
2023-03-17T08:51:13.595Z,49.60
2023-03-17T08:53:40.729Z,49.60
2023-03-17T08:56:08.336Z,49.60
2023-03-17T08:58:37.776Z,49.50
2023-03-17T09:01:04.932Z,49.00
2023-03-17T09:03:33.592Z,49.50
2023-03-17T09:06:00.498Z,49.60
2023-03-17T09:08:27.921Z,49.50
2023-03-17T09:10:54.589Z,49.60
2023-03-17T09:13:21.908Z,49.50
2023-03-17T09:15:51.316Z,49.50
2023-03-17T09:18:21.921Z,49.50
2023-03-17T09:20:48.766Z,49.00
2023-03-17T09:23:15.866Z,49.50
2023-03-17T09:25:42.817Z,49.50
2023-03-17T09:28:11.836Z,49.50
2023-03-17T09:30:42.569Z,49.00
2023-03-17T09:33:13.067Z,49.50
2023-03-17T09:35:40.978Z,49.50
2023-03-17T09:38:08.599Z,49.60
2023-03-17T09:41:02.843Z,49.50
2023-03-17T09:43:34.820Z,49.50
2023-03-17T09:46:15.775Z,49.50
2023-03-17T09:49:07.677Z,49.60
2023-03-17T09:51:35.726Z,49.60
2023-03-17T09:54:03.756Z,49.50
2023-03-17T09:56:33.426Z,49.50
2023-03-17T09:59:05.081Z,49.00
2023-03-17T10:01:32.184Z,49.50
2023-03-17T10:03:59.114Z,49.70
2023-03-17T10:06:46.583Z,49.50
2023-03-17T10:09:31.900Z,49.50
2023-03-17T10:12:12.089Z,49.60
2023-03-17T10:14:54.469Z,49.50
2023-03-17T10:17:22.385Z,49.60
2023-03-17T10:20:08.271Z,49.50
2023-03-17T10:22:41.039Z,49.50
2023-03-17T10:25:21.526Z,49.50
2023-03-17T10:27:59.828Z,49.50
2023-03-17T10:30:27.312Z,49.50
2023-03-17T10:32:58.715Z,49.60
2023-03-17T10:35:25.537Z,49.60
2023-03-17T10:38:04.309Z,49.50
2023-03-17T10:40:36.068Z,49.60
2023-03-17T10:43:08.688Z,49.50
2023-03-17T10:45:40.920Z,49.50
2023-03-17T10:48:10.527Z,49.60
2023-03-17T10:50:40.899Z,49.40
2023-03-17T10:53:28.119Z,49.50
2023-03-17T10:55:59.363Z,49.50
2023-03-17T10:58:28.753Z,49.60
2023-03-17T11:01:05.650Z,49.60
2023-03-17T11:03:38.657Z,49.50
2023-03-17T11:06:14.244Z,49.50
2023-03-17T11:08:55.253Z,49.60
2023-03-17T11:11:31.318Z,49.50
2023-03-17T11:14:16.119Z,49.60
2023-03-17T11:16:57.865Z,49.60
2023-03-17T11:22:26.829Z,49.00
2023-03-17T11:25:13.128Z,49.50
2023-03-17T11:27:53.141Z,49.50
2023-03-17T11:30:35.238Z,49.50
2023-03-17T11:33:43.362Z,49.50
2023-03-17T11:36:36.161Z,49.50
2023-03-17T11:39:14.473Z,49.30
2023-03-17T11:41:58.696Z,49.40
2023-03-17T11:44:55.511Z,49.30
2023-03-17T11:59:37.219Z,49.30
2023-03-17T12:02:28.619Z,49.30
2023-03-17T12:05:06.897Z,49.20
2023-03-17T12:07:46.758Z,49.20
2023-03-17T12:10:21.765Z,49.30
2023-03-17T12:13:04.729Z,49.30
2023-03-17T12:15:37.623Z,49.30
2023-03-17T12:18:35.611Z,49.30
2023-03-17T12:21:30.831Z,48.80
2023-03-17T12:24:04.061Z,49.30
2023-03-17T12:26:54.231Z,49.20
2023-03-17T12:29:43.076Z,49.20
2023-03-17T12:32:15.727Z,48.80
2023-03-17T12:34:50.579Z,49.20
2023-03-17T12:37:18.531Z,49.20
2023-03-17T12:40:01.697Z,48.70
2023-03-17T12:42:47.016Z,49.20
2023-03-17T12:45:25.150Z,49.20
2023-03-17T12:48:25.010Z,49.10
2023-03-17T12:51:11.636Z,49.20
2023-03-17T12:53:41.445Z,49.20
2023-03-17T12:56:20.729Z,49.20
2023-03-17T12:58:50.500Z,49.10
2023-03-17T13:01:35.872Z,48.50
2023-03-17T13:04:28.101Z,49.10
2023-03-17T13:07:03.685Z,49.10
2023-03-17T13:09:42.332Z,49.00
2023-03-17T13:12:44.219Z,49.00
2023-03-17T13:15:48.642Z,49.00
2023-03-17T13:18:18.374Z,49.00
2023-03-17T13:20:57.416Z,49.00
2023-03-17T13:23:54.966Z,49.00
2023-03-17T13:26:44.640Z,49.10
2023-03-17T13:29:29.880Z,48.60
2023-03-17T13:32:17.053Z,49.10
2023-03-17T13:34:56.009Z,49.10
2023-03-17T13:38:05.131Z,49.10
2023-03-17T13:41:06.748Z,49.20
2023-03-17T14:24:21.195Z,49.30
2023-03-17T14:26:48.722Z,49.30
2023-03-17T14:29:17.513Z,49.30
2023-03-17T14:31:51.440Z,49.30
2023-03-17T14:34:22.009Z,49.30
2023-03-17T14:36:50.820Z,49.30
2023-03-17T14:39:25.255Z,49.30
2023-03-17T14:42:05.272Z,49.30
2023-03-17T14:44:40.227Z,49.30
2023-03-17T14:47:22.757Z,49.30
2023-03-17T14:49:52.502Z,49.30
2023-03-17T14:52:27.197Z,49.50
2023-03-17T14:54:58.097Z,50.00
2023-03-17T14:57:32.311Z,50.30
2023-03-17T15:00:01.693Z,50.20
2023-03-17T15:02:37.641Z,50.60
2023-03-17T15:05:38.745Z,50.70
2023-03-17T15:08:35.790Z,50.90
2023-03-17T15:11:05.028Z,51.00
2023-03-17T15:13:36.297Z,51.20
2023-03-17T15:16:34.554Z,51.40
2023-03-17T15:19:17.730Z,51.20
2023-03-17T15:21:44.460Z,50.20
2023-03-17T15:24:26.609Z,50.90
2023-03-17T15:27:00.500Z,51.10
2023-03-17T15:29:27.961Z,51.20
2023-03-17T15:32:15.286Z,51.20
2023-03-17T15:34:42.157Z,51.10
2023-03-17T15:37:23.739Z,51.60
2023-03-17T15:39:52.843Z,51.20
2023-03-17T15:42:21.866Z,50.90
2023-03-17T15:44:48.742Z,50.80
2023-03-17T15:47:17.413Z,50.80
2023-03-17T15:49:45.467Z,50.80
2023-03-17T15:52:21.440Z,50.70
2023-03-17T15:54:48.620Z,50.80
2023-03-17T15:57:15.614Z,50.70
2023-03-17T15:59:42.302Z,50.70
2023-03-17T16:02:29.031Z,50.80
2023-03-17T16:04:56.173Z,50.70
2023-03-17T16:07:23.915Z,50.60
2023-03-17T16:09:51.014Z,50.60
2023-03-17T16:12:18.449Z,50.60
2023-03-17T16:14:45.550Z,50.60
2023-03-17T16:17:28.564Z,50.60
2023-03-17T16:19:59.784Z,50.60
2023-03-17T16:22:43.456Z,50.60
2023-03-17T16:25:30.709Z,50.60
2023-03-17T16:27:59.196Z,50.60
2023-03-17T16:30:31.942Z,50.60
2023-03-17T16:33:08.651Z,50.70
2023-03-17T16:35:35.739Z,50.60
2023-03-17T16:38:02.387Z,50.60
2023-03-17T16:40:35.498Z,50.60
2023-03-17T16:43:12.915Z,50.60
2023-03-17T16:45:42.463Z,50.70
2023-03-17T16:48:14.536Z,50.70
2023-03-17T16:50:42.268Z,50.70
2023-03-17T16:53:09.301Z,50.80
2023-03-17T16:55:36.902Z,50.80
2023-03-17T16:58:17.393Z,50.80
2023-03-17T17:00:45.006Z,50.30
2023-03-17T17:03:11.903Z,50.70
2023-03-17T17:05:39.003Z,50.70
2023-03-17T17:08:05.877Z,50.80
2023-03-17T17:10:34.483Z,50.80
2023-03-17T17:13:02.700Z,50.80
2023-03-17T17:15:30.654Z,50.80
2023-03-17T17:18:00.952Z,50.90
2023-03-17T17:20:31.697Z,50.30
2023-03-17T17:23:00.424Z,50.90
2023-03-17T17:25:28.290Z,50.90
2023-03-17T17:27:56.330Z,50.80
2023-03-17T17:30:27.874Z,50.80
2023-03-17T17:32:57.063Z,50.70
2023-03-17T17:35:25.455Z,50.50
2023-03-17T17:37:52.564Z,50.50
2023-03-17T17:40:21.543Z,50.70
2023-03-17T17:42:48.243Z,50.70
2023-03-17T17:45:15.850Z,50.60
2023-03-17T17:47:42.921Z,50.70
2023-03-17T17:50:12.427Z,50.70
2023-03-17T17:52:39.044Z,51.20
2023-03-17T17:55:06.065Z,51.10
2023-03-17T17:57:32.910Z,50.80
2023-03-17T17:59:59.565Z,50.20
2023-03-17T18:02:26.215Z,50.90
2023-03-17T18:04:53.445Z,50.80
2023-03-17T18:07:20.209Z,50.80
2023-03-17T18:09:46.877Z,50.80
2023-03-17T18:12:13.710Z,51.00
2023-03-17T18:14:40.953Z,51.00
2023-03-17T18:17:07.768Z,50.80
2023-03-17T18:19:34.383Z,51.00
2023-03-17T18:22:01.146Z,51.00
2023-03-17T18:24:27.803Z,51.00
2023-03-17T18:26:54.473Z,51.20
2023-03-17T18:29:21.122Z,51.20
2023-03-17T18:31:51.949Z,51.30
2023-03-17T18:34:25.882Z,51.10
2023-03-17T18:36:54.534Z,51.30
2023-03-17T18:39:21.266Z,51.20
2023-03-17T18:41:48.806Z,51.20
2023-03-17T18:44:15.664Z,50.90
2023-03-17T18:46:42.715Z,51.20
2023-03-17T18:49:09.347Z,51.30
2023-03-17T18:51:36.302Z,51.40
2023-03-17T18:54:03.703Z,51.30
2023-03-17T18:56:30.618Z,51.20
2023-03-17T18:58:58.426Z,51.40
2023-03-17T19:01:26.054Z,51.40
2023-03-17T19:03:53.026Z,51.40
2023-03-17T19:06:22.157Z,51.40
2023-03-17T19:08:49.198Z,51.40
2023-03-17T19:11:18.304Z,51.30
2023-03-17T19:13:45.526Z,51.30
2023-03-17T19:16:12.881Z,51.40
2023-03-17T19:18:42.236Z,51.50
2023-03-17T19:21:10.242Z,51.40
2023-03-17T19:23:38.078Z,51.50
2023-03-17T19:26:05.287Z,51.60
2023-03-17T19:28:33.108Z,52.20
2023-03-17T19:31:00.267Z,51.70
2023-03-17T19:33:28.732Z,51.70
2023-03-17T19:35:58.339Z,51.70
2023-03-17T19:38:25.609Z,52.20
2023-03-17T19:40:52.882Z,51.20
2023-03-17T19:43:36.870Z,51.60
2023-03-17T19:46:07.630Z,51.60
2023-03-17T19:48:34.474Z,51.50
2023-03-17T19:51:02.070Z,51.40
2023-03-17T19:53:28.774Z,51.30
2023-03-17T19:55:56.674Z,51.60
2023-03-17T19:58:23.381Z,52.10
2023-03-17T20:00:50.546Z,51.40
2023-03-17T20:03:17.164Z,51.60
2023-03-17T20:05:45.647Z,51.90
2023-03-17T20:08:12.256Z,51.90
2023-03-17T20:10:39.182Z,52.00
2023-03-17T20:13:06.277Z,52.00
2023-03-17T20:15:33.711Z,52.00
2023-03-17T20:18:00.640Z,51.60
2023-03-17T20:20:27.527Z,51.10
2023-03-17T20:22:54.207Z,51.50
2023-03-17T20:25:21.677Z,51.30
2023-03-17T20:27:49.257Z,51.30
2023-03-17T20:30:16.054Z,50.60
2023-03-17T20:32:44.038Z,51.50
2023-03-17T20:35:12.114Z,51.40
2023-03-17T20:37:39.393Z,51.40
2023-03-17T20:40:08.512Z,51.50
2023-03-17T20:42:35.969Z,51.60
2023-03-17T20:45:03.490Z,51.60
2023-03-17T20:47:30.706Z,52.00
2023-03-17T20:49:58.777Z,51.70
2023-03-17T20:52:29.456Z,51.60
2023-03-17T20:54:56.705Z,51.60
2023-03-17T20:57:23.364Z,51.60
2023-03-17T20:59:51.198Z,51.60
2023-03-17T21:02:18.981Z,51.60
2023-03-17T21:04:48.638Z,51.70
2023-03-17T21:07:17.096Z,51.60
2023-03-17T21:09:44.831Z,51.60
2023-03-17T21:12:18.100Z,51.50
2023-03-17T21:14:45.365Z,51.50
2023-03-17T21:17:11.985Z,51.50
2023-03-17T21:19:38.680Z,50.90
2023-03-17T21:22:06.328Z,51.40
2023-03-17T21:24:35.709Z,51.30
2023-03-17T21:27:04.948Z,51.30
2023-03-17T21:29:33.162Z,51.20
2023-03-17T21:32:01.282Z,51.20
2023-03-17T21:34:29.890Z,51.20
2023-03-17T21:36:57.160Z,51.20
2023-03-17T21:39:24.868Z,51.20
2023-03-17T21:41:51.957Z,51.10
2023-03-17T21:44:19.206Z,51.10
2023-03-17T21:46:47.780Z,51.20
2023-03-17T21:49:16.198Z,51.20
2023-03-17T21:51:44.341Z,51.10
2023-03-17T21:54:11.107Z,51.10
2023-03-17T21:56:38.500Z,51.10
2023-03-17T21:59:05.908Z,51.10
2023-03-17T22:01:33.113Z,50.60
2023-03-17T22:03:59.874Z,51.10
2023-03-17T22:06:27.459Z,51.10
2023-03-17T22:08:54.500Z,51.10
2023-03-17T22:11:21.362Z,51.10
2023-03-17T22:13:48.403Z,51.10
2023-03-17T22:16:15.908Z,51.10
2023-03-17T22:18:42.919Z,50.60
2023-03-17T22:21:10.074Z,51.10
2023-03-17T22:23:41.416Z,51.10
2023-03-17T22:26:13.250Z,51.10
2023-03-17T22:28:40.611Z,51.10
2023-03-17T22:31:17.333Z,51.00
2023-03-17T22:33:44.348Z,51.10
2023-03-17T22:36:11.480Z,51.10
2023-03-17T22:38:38.226Z,51.10
2023-03-17T22:41:07.910Z,50.50
2023-03-17T22:43:35.763Z,51.10
2023-03-17T22:46:02.881Z,51.10
2023-03-17T22:48:29.639Z,51.10
2023-03-17T22:50:56.242Z,51.10
2023-03-17T22:53:22.833Z,51.10
2023-03-17T22:55:49.424Z,51.10
2023-03-17T22:58:16.091Z,51.10
2023-03-17T23:00:42.720Z,51.10
2023-03-17T23:03:09.359Z,51.10
2023-03-17T23:05:35.979Z,51.00
2023-03-17T23:08:02.803Z,51.10
2023-03-17T23:10:29.657Z,51.10
2023-03-17T23:12:56.671Z,51.00
2023-03-17T23:15:23.473Z,51.00
2023-03-17T23:17:50.113Z,51.10
2023-03-17T23:20:17.547Z,51.00
2023-03-17T23:22:44.304Z,50.90
2023-03-17T23:25:13.451Z,51.00
2023-03-17T23:27:40.794Z,51.00
2023-03-17T23:30:10.635Z,51.00
2023-03-17T23:32:38.712Z,51.00
2023-03-17T23:35:05.599Z,50.90
2023-03-17T23:37:32.293Z,50.90
2023-03-17T23:39:59.610Z,50.40
2023-03-17T23:42:26.438Z,50.90
2023-03-17T23:44:53.060Z,51.50
2023-03-17T23:47:20.467Z,50.90
2023-03-17T23:49:48.133Z,50.90
2023-03-17T23:52:15.387Z,50.90
2023-03-17T23:54:41.990Z,50.90
2023-03-17T23:57:09.137Z,50.90
2023-03-17T23:59:36.155Z,50.90
